KHYS

Hays Regional Airport

Hays, Kansas, USA
KHYS 242320Z 2500/2524 18010KT P6SM FEW250 FM251000 02010KT 5SM -RA BKN020 FM251700 36020G30KT P6SM VCSH OVC005 FM251900 01025G35KT P6SM BKN050
Issued Valid From Valid To
Sep-24 @ 23:20 UTC
(2 hours ago)
Sep-25 @ 00:00 UTC
(an hour ago)
Sep-26 @ 00:00 UTC
(in 23 hours)
Sep-25 @ 00:00 to Sep-25 @ 10:00
KHYS 242320Z 2500/2524 18010KT P6SM FEW250
Wind Visibility Clouds
180° at 10 knots Greater than 6 miles
  • Few at 25,000' AGL
From Sep-25 @ 10:00 to Sep-25 @ 17:00
FM251000 02010KT 5SM -RA BKN020
Wind Visibility Clouds Conditions
20° at 10 knots 5 miles
  • Broken at 2,000' AGL
  • Light Rain
From Sep-25 @ 17:00 to Sep-25 @ 19:00
FM251700 36020G30KT P6SM VCSH OVC005
Wind Visibility Clouds
360° at 20 knots
 Gusting to 30 knots
Greater than 6 miles
  • Overcast at 500' AGL
From Sep-25 @ 19:00 to Sep-26 @ 00:00
FM251900 01025G35KT P6SM BKN050
Wind Visibility Clouds
10° at 25 knots
 Gusting to 35 knots
Greater than 6 miles
  • Broken at 5,000' AGL
KHYS 242320Z 2500/2524 18010KT P6SM FEW250 FM251000 02010KT 5SM -RA BKN020 FM251700 36020G30KT P6SM VCSH OVC005 FM251900 01025G35KT P6SM BKN050
Issued Sep-24 @ 23:20 UTC
(2 hours ago)
Valid From Sep-25 @ 00:00 UTC
(an hour ago)
Valid To Sep-26 @ 00:00 UTC
(in 23 hours)
Sep-25 @ 00:00 - Sep-25 @ 10:00
Wind Visibility
180° at 10 knots Greater than 6 miles
Clouds
  • Few at 25,000' AGL
From Sep-25 @ 10:00 - Sep-25 @ 17:00
Wind Visibility
20° at 10 knots 5 miles
Clouds
  • Broken at 2,000' AGL
Conditions
  • Light Rain
From Sep-25 @ 17:00 - Sep-25 @ 19:00
Wind Visibility
360° at 20 knots
 Gusting to 30 knots
Greater than 6 miles
Clouds
  • Overcast at 500' AGL
From Sep-25 @ 19:00 - Sep-26 @ 00:00
Wind Visibility
10° at 25 knots
 Gusting to 35 knots
Greater than 6 miles
Clouds
  • Broken at 5,000' AGL